Time;durP1;ratioP1;P1;durP2;ratioP2;P2;SDS_P1;SDS_P2;PMS_P1;PMS_P2;Temp;Humidity;BMP_temperature;BMP_pressure;BME280_temperature;BME280_humidity;BME280_pressure;Samples;Min_cycle;Max_cycle;Signal;HPM_P1;HPM_P2
2023/08/11 00:01:41;;;;;;;2.90;0.98;;;15.90;99.90;;;;;;5141437;27;20225;-85
2023/08/11 00:04:12;;;;;;;3.40;0.90;;;16.00;99.90;;;;;;5133780;27;20193;-85
2023/08/11 00:06:43;;;;;;;2.85;0.80;;;16.00;99.90;;;;;;5131245;27;20212;-84
2023/08/11 00:09:15;;;;;;;4.82;1.20;;;16.30;99.90;;;;;;5138382;27;20205;-84
2023/08/11 00:11:46;;;;;;;2.35;0.80;;;16.30;99.90;;;;;;5131708;27;20613;-84
2023/08/11 00:14:16;;;;;;;5.47;1.00;;;16.40;99.90;;;;;;5131547;28;20194;-83
2023/08/11 00:16:49;;;;;;;2.55;0.80;;;16.50;99.90;;;;;;5132184;27;20189;-84
2023/08/11 00:19:20;;;;;;;2.78;0.90;;;16.50;99.90;;;;;;5139307;27;20226;-83
2023/08/11 00:21:50;;;;;;;1.35;0.60;;;16.60;99.90;;;;;;5130816;27;20225;-84
2023/08/11 00:24:21;;;;;;;4.05;0.98;;;16.70;99.90;;;;;;5130832;27;20198;-83
2023/08/11 00:26:52;;;;;;;2.55;0.60;;;16.80;99.90;;;;;;5130428;27;20194;-83
2023/08/11 00:29:24;;;;;;;2.38;0.80;;;17.00;99.90;;;;;;5131125;27;20194;-83
2023/08/11 00:31:56;;;;;;;2.05;0.70;;;17.00;99.90;;;;;;5132169;27;20676;-84
2023/08/11 00:34:27;;;;;;;2.80;0.70;;;16.90;99.90;;;;;;5131495;27;20206;-84
2023/08/11 00:36:58;;;;;;;2.60;0.70;;;16.90;99.90;;;;;;5131233;27;20661;-84
2023/08/11 00:39:28;;;;;;;2.05;0.80;;;16.90;99.90;;;;;;5131171;27;20190;-84
2023/08/11 00:41:59;;;;;;;4.15;1.05;;;17.00;99.90;;;;;;5134595;27;20324;-84
2023/08/11 00:44:30;;;;;;;2.92;0.80;;;17.10;99.90;;;;;;5135234;27;20197;-85
2023/08/11 00:47:03;;;;;;;3.03;1.00;;;17.20;99.90;;;;;;5134724;27;20193;-85
2023/08/11 00:49:36;;;;;;;2.45;0.70;;;17.20;99.90;;;;;;5134539;27;20229;-87
2023/08/11 00:52:08;;;;;;;2.58;0.75;;;17.30;99.90;;;;;;5134594;27;20186;-86
2023/08/11 00:54:39;;;;;;;1.92;0.60;;;17.40;99.90;;;;;;5134655;27;20200;-87
2023/08/11 00:57:10;;;;;;;2.22;0.70;;;17.40;99.80;;;;;;5135332;27;20197;-85
2023/08/11 00:59:40;;;;;;;3.30;0.82;;;17.50;99.90;;;;;;5133918;27;20203;-86
2023/08/11 01:02:13;;;;;;;1.92;0.77;;;17.50;99.50;;;;;;5135644;27;20707;-84
2023/08/11 01:04:48;;;;;;;1.63;0.93;;;17.60;99.90;;;;;;5134511;27;20196;-85
2023/08/11 01:07:27;;;;;;;2.03;0.90;;;17.70;99.70;;;;;;5134971;27;20201;-84
2023/08/11 01:10:10;;;;;;;3.03;0.60;;;17.90;99.50;;;;;;5139133;27;20656;-84
2023/08/11 01:12:51;;;;;;;2.13;0.68;;;17.90;98.50;;;;;;5139491;27;20198;-83
2023/08/11 01:15:27;;;;;;;3.35;1.00;;;18.00;98.70;;;;;;5136278;27;20197;-83
2023/08/11 01:18:01;;;;;;;1.00;0.70;;;18.10;98.10;;;;;;5137540;27;20228;-84
2023/08/11 01:20:34;;;;;;;5.40;1.63;;;18.10;96.80;;;;;;5154422;27;20632;-84
2023/08/11 01:23:07;;;;;;;4.00;0.90;;;18.10;97.20;;;;;;5143231;27;20202;-84
2023/08/11 01:25:40;;;;;;;4.00;0.80;;;18.10;97.20;;;;;;5135836;27;20253;-85
2023/08/11 01:28:11;;;;;;;2.33;0.60;;;18.30;96.90;;;;;;5135377;27;20190;-85
2023/08/11 01:30:42;;;;;;;1.83;0.80;;;18.30;96.50;;;;;;5145679;27;20203;-85
2023/08/11 01:33:12;;;;;;;2.13;1.05;;;18.40;96.30;;;;;;5154262;27;20601;-86
2023/08/11 01:35:43;;;;;;;1.38;0.50;;;18.40;96.50;;;;;;5151122;27;20597;-83
2023/08/11 01:38:15;;;;;;;1.90;0.52;;;18.50;96.00;;;;;;5154864;27;20199;-84
2023/08/11 01:40:50;;;;;;;1.73;0.60;;;18.60;95.70;;;;;;5155640;27;20209;-84
2023/08/11 01:43:21;;;;;;;2.30;0.60;;;18.70;94.20;;;;;;5141552;27;20657;-84
2023/08/11 01:45:53;;;;;;;2.95;1.10;;;18.70;93.60;;;;;;5133269;27;20194;-83
2023/08/11 01:48:25;;;;;;;2.15;0.50;;;18.60;93.60;;;;;;5137092;27;20194;-84
2023/08/11 01:50:56;;;;;;;1.05;0.40;;;18.60;93.30;;;;;;5134011;27;20229;-84
2023/08/11 01:53:27;;;;;;;2.08;0.50;;;18.70;92.80;;;;;;5150710;27;20269;-84
2023/08/11 01:56:00;;;;;;;0.82;0.50;;;18.90;92.20;;;;;;5152252;27;20204;-84
2023/08/11 01:58:32;;;;;;;2.45;0.50;;;19.00;92.10;;;;;;5135426;27;20628;-84
2023/08/11 02:01:03;;;;;;;1.08;0.45;;;19.00;92.10;;;;;;5133568;27;20190;-84
2023/08/11 02:03:34;;;;;;;0.85;0.40;;;19.20;91.00;;;;;;5133367;27;20193;-83
2023/08/11 02:06:05;;;;;;;2.00;0.60;;;19.20;90.40;;;;;;5133459;27;20197;-84
2023/08/11 02:08:37;;;;;;;1.67;0.65;;;19.20;91.10;;;;;;5131929;27;20221;-84
2023/08/11 02:11:10;;;;;;;0.82;0.43;;;19.30;90.80;;;;;;5143338;27;20199;-84
2023/08/11 02:13:41;;;;;;;2.78;0.60;;;19.40;90.30;;;;;;5136813;27;20198;-84
2023/08/11 02:16:12;;;;;;;1.83;0.50;;;19.50;89.10;;;;;;5144864;27;20527;-84
2023/08/11 02:18:43;;;;;;;1.48;0.68;;;19.50;88.30;;;;;;5133219;27;20230;-84
2023/08/11 02:21:14;;;;;;;2.05;0.60;;;19.50;89.00;;;;;;5143079;27;20216;-85
2023/08/11 02:23:45;;;;;;;1.13;0.40;;;19.60;87.00;;;;;;5159450;27;20204;-85
2023/08/11 02:26:18;;;;;;;1.02;0.40;;;19.60;86.40;;;;;;5155455;27;20190;-84
2023/08/11 02:28:50;;;;;;;1.13;0.40;;;19.70;85.40;;;;;;5136577;27;20198;-84
2023/08/11 02:31:21;;;;;;;1.52;0.50;;;19.80;85.80;;;;;;5133969;27;20206;-84
2023/08/11 02:33:52;;;;;;;1.35;0.50;;;19.80;84.70;;;;;;5142395;27;20223;-84
2023/08/11 02:36:24;;;;;;;1.45;0.63;;;19.70;85.80;;;;;;5132493;27;20194;-84
2023/08/11 02:38:55;;;;;;;2.92;0.60;;;19.80;85.20;;;;;;5133973;27;20243;-83
2023/08/11 02:41:28;;;;;;;1.83;0.50;;;19.90;85.70;;;;;;5133592;27;20225;-84
2023/08/11 02:44:00;;;;;;;1.83;0.70;;;19.90;84.90;;;;;;5139506;27;20682;-82
2023/08/11 02:46:31;;;;;;;1.55;0.52;;;20.00;84.50;;;;;;5138307;27;20225;-84
2023/08/11 02:49:02;;;;;;;2.20;0.60;;;20.10;83.00;;;;;;5133402;27;20225;-84
2023/08/11 02:51:33;;;;;;;1.75;0.60;;;20.20;82.80;;;;;;5154677;27;20208;-84
2023/08/11 02:54:04;;;;;;;1.85;0.60;;;20.30;83.00;;;;;;5153627;27;20224;-83
2023/08/11 02:56:38;;;;;;;1.90;0.68;;;20.30;81.60;;;;;;5152145;27;20665;-84
2023/08/11 02:59:09;;;;;;;3.72;0.75;;;20.20;81.80;;;;;;5132566;27;20262;-84
2023/08/11 03:01:40;;;;;;;1.50;0.40;;;20.20;81.50;;;;;;5139094;27;20312;-85
2023/08/11 03:04:11;;;;;;;4.38;0.80;;;20.30;82.30;;;;;;5153504;27;20193;-85
2023/08/11 03:06:42;;;;;;;2.67;0.70;;;20.30;85.40;;;;;;5139981;27;20197;-84
2023/08/11 03:09:13;;;;;;;2.03;0.50;;;20.30;88.10;;;;;;5132836;27;20198;-85
2023/08/11 03:11:45;;;;;;;2.95;0.93;;;20.40;85.40;;;;;;5138159;27;20193;-84
2023/08/11 03:14:17;;;;;;;2.20;0.70;;;20.40;85.80;;;;;;5153485;27;20197;-86
2023/08/11 03:16:48;;;;;;;2.72;0.85;;;20.50;85.10;;;;;;5153267;27;20245;-84
2023/08/11 03:19:19;;;;;;;3.50;1.00;;;20.50;88.70;;;;;;5145597;27;20225;-85
2023/08/11 03:21:50;;;;;;;2.80;0.85;;;20.60;90.10;;;;;;5135664;27;20225;-85
2023/08/11 03:24:21;;;;;;;5.10;1.20;;;20.60;91.40;;;;;;5144876;27;20675;-85
2023/08/11 03:26:54;;;;;;;4.32;0.90;;;20.60;92.10;;;;;;5146637;27;20232;-85
2023/08/11 03:29:25;;;;;;;2.92;0.82;;;20.50;92.60;;;;;;5154422;27;20671;-86
2023/08/11 03:31:56;;;;;;;3.63;1.13;;;20.50;90.80;;;;;;5153974;27;20223;-86
2023/08/11 03:34:28;;;;;;;3.35;0.70;;;20.50;90.90;;;;;;5145599;27;20296;-86
2023/08/11 03:36:59;;;;;;;5.53;1.00;;;20.40;92.10;;;;;;5134070;27;20193;-82
2023/08/11 03:39:30;;;;;;;1.05;0.60;;;20.40;91.20;;;;;;5166003;27;20208;-87
2023/08/11 03:42:05;;;;;;;2.95;1.00;;;20.30;90.30;;;;;;5154666;27;20214;-87
2023/08/11 03:44:36;;;;;;;3.10;0.90;;;20.20;90.50;;;;;;5140448;27;20678;-86
2023/08/11 03:47:08;;;;;;;2.40;0.65;;;20.30;91.10;;;;;;5145119;27;20193;-86
2023/08/11 03:49:39;;;;;;;3.20;0.70;;;20.10;91.20;;;;;;5153744;27;20212;-88
2023/08/11 03:52:11;;;;;;;2.63;0.70;;;19.90;92.20;;;;;;5151516;27;20221;-86
2023/08/11 03:54:42;;;;;;;2.45;0.90;;;19.80;91.60;;;;;;5140666;27;20560;-87
2023/08/11 03:57:16;;;;;;;2.65;0.85;;;19.80;92.30;;;;;;5143104;27;20201;-88
2023/08/11 03:59:47;;;;;;;4.53;0.93;;;19.80;92.10;;;;;;5154543;27;20671;-89
2023/08/11 04:02:19;;;;;;;3.55;0.90;;;19.70;92.30;;;;;;5143742;27;20221;-88
2023/08/11 04:04:50;;;;;;;3.97;0.98;;;19.80;92.40;;;;;;5135620;27;20692;-88
2023/08/11 04:07:21;;;;;;;2.15;0.70;;;19.80;92.60;;;;;;5136421;27;20194;-87
2023/08/11 04:09:54;;;;;;;4.18;0.70;;;19.90;92.50;;;;;;5136506;27;20194;-87
2023/08/11 04:12:27;;;;;;;2.00;0.82;;;19.90;92.90;;;;;;5150632;27;20193;-88
2023/08/11 04:14:58;;;;;;;3.72;0.82;;;19.90;94.00;;;;;;5143747;27;20197;-86
2023/08/11 04:17:28;;;;;;;5.22;0.90;;;19.80;94.30;;;;;;5137757;27;20211;-87
2023/08/11 04:19:59;;;;;;;3.08;0.98;;;19.60;95.60;;;;;;5144768;27;20199;-87
2023/08/11 04:22:30;;;;;;;4.93;0.80;;;19.60;96.00;;;;;;5158531;27;20231;-87
2023/08/11 04:25:02;;;;;;;4.53;0.88;;;19.60;96.40;;;;;;5121482;27;20198;-88
2023/08/11 04:27:36;;;;;;;3.85;1.00;;;19.50;97.70;;;;;;5103434;27;20220;-87
2023/08/11 04:30:08;;;;;;;3.13;0.90;;;19.60;98.00;;;;;;5146737;27;20207;-88
2023/08/11 04:32:40;;;;;;;2.97;0.98;;;19.60;97.90;;;;;;5152568;27;20257;-87
2023/08/11 04:35:13;;;;;;;2.15;0.90;;;19.40;97.60;;;;;;5161373;27;20193;-87
2023/08/11 04:37:44;;;;;;;2.75;0.80;;;19.40;97.60;;;;;;5159212;27;20189;-88
2023/08/11 04:40:16;;;;;;;3.53;0.80;;;19.40;98.10;;;;;;5151809;27;20199;-87
2023/08/11 04:42:51;;;;;;;3.00;0.80;;;19.30;98.40;;;;;;5143288;27;20666;-87
2023/08/11 04:45:23;;;;;;;3.10;0.85;;;19.30;97.80;;;;;;5140476;27;20201;-88
2023/08/11 04:47:54;;;;;;;2.30;0.70;;;19.30;98.50;;;;;;5139521;27;20202;-88
2023/08/11 04:50:26;;;;;;;3.38;1.00;;;19.10;99.00;;;;;;5154794;27;20217;-88
2023/08/11 04:52:58;;;;;;;2.33;0.73;;;19.10;99.70;;;;;;5136919;27;20265;-86
2023/08/11 04:55:30;;;;;;;2.20;0.95;;;19.10;99.30;;;;;;5151082;27;20281;-88
2023/08/11 04:58:03;;;;;;;2.40;0.90;;;19.00;99.90;;;;;;5138160;27;20190;-87
2023/08/11 05:00:34;;;;;;;2.13;0.90;;;19.10;99.90;;;;;;5139995;27;20221;-86
2023/08/11 05:03:05;;;;;;;3.28;0.90;;;19.10;99.90;;;;;;5156342;27;20209;-86
2023/08/11 05:05:36;;;;;;;3.70;0.98;;;19.00;99.90;;;;;;5139542;27;20208;-87
2023/08/11 05:08:07;;;;;;;2.88;0.80;;;19.00;99.90;;;;;;5139001;27;20194;-87
2023/08/11 05:10:38;;;;;;;1.98;0.88;;;19.10;99.90;;;;;;5142032;27;20198;-85
2023/08/11 05:13:10;;;;;;;2.85;0.90;;;19.00;99.90;;;;;;5154290;27;20201;-85
2023/08/11 05:15:41;;;;;;;3.38;0.90;;;19.10;99.90;;;;;;5156131;27;20215;-85
2023/08/11 05:18:12;;;;;;;3.42;1.00;;;19.10;99.90;;;;;;5138031;27;20544;-85
2023/08/11 05:20:43;;;;;;;3.05;0.80;;;19.00;99.90;;;;;;5144695;27;20194;-85
2023/08/11 05:23:14;;;;;;;2.70;0.80;;;19.00;99.90;;;;;;5135949;27;20317;-85
2023/08/11 05:25:45;;;;;;;4.25;0.80;;;19.10;99.90;;;;;;5135948;27;20205;-85
2023/08/11 05:28:18;;;;;;;2.88;1.08;;;19.10;99.90;;;;;;5136043;27;20202;-85
2023/08/11 05:30:49;;;;;;;5.50;0.80;;;19.10;99.90;;;;;;5135893;27;20210;-84
2023/08/11 05:33:20;;;;;;;4.57;2.22;;;19.10;99.90;;;;;;5135966;27;20198;-84
2023/08/11 05:35:51;;;;;;;5.15;1.40;;;19.10;99.90;;;;;;5135894;27;20667;-85
2023/08/11 05:38:24;;;;;;;2.55;0.80;;;19.10;99.90;;;;;;5135380;27;20204;-84
2023/08/11 05:40:59;;;;;;;2.38;0.77;;;19.10;99.90;;;;;;5135223;27;20194;-87
2023/08/11 05:43:33;;;;;;;2.88;0.73;;;19.20;99.90;;;;;;5135426;27;20217;-87
2023/08/11 05:46:06;;;;;;;3.25;0.75;;;19.20;99.90;;;;;;5135828;27;20273;-87
2023/08/11 05:48:37;;;;;;;3.72;0.90;;;19.30;99.90;;;;;;5140292;27;20197;-90
2023/08/11 05:51:09;;;;;;;2.65;0.75;;;19.30;99.90;;;;;;5152000;27;20202;-88
2023/08/11 05:53:40;;;;;;;3.42;0.98;;;19.20;99.90;;;;;;5152150;27;20280;-88
2023/08/11 05:56:11;;;;;;;2.95;0.95;;;19.30;99.90;;;;;;5149744;27;20186;-88
2023/08/11 05:58:45;;;;;;;4.38;1.10;;;19.20;99.90;;;;;;5136413;27;20193;-88
2023/08/11 06:01:16;;;;;;;3.50;0.80;;;19.10;99.90;;;;;;5145770;27;20201;-88
2023/08/11 06:03:47;;;;;;;4.50;0.88;;;19.20;99.90;;;;;;5156645;27;20217;-87
2023/08/11 06:06:18;;;;;;;3.88;0.80;;;19.40;99.90;;;;;;5159939;27;20202;-87
2023/08/11 06:08:50;;;;;;;4.53;0.90;;;19.20;99.90;;;;;;5162627;27;20245;-88
2023/08/11 06:11:22;;;;;;;3.20;0.82;;;19.30;99.90;;;;;;5119180;27;20205;-88
2023/08/11 06:13:56;;;;;;;3.28;0.85;;;19.40;99.90;;;;;;5136694;27;20307;-87
2023/08/11 06:16:27;;;;;;;4.68;1.00;;;19.60;99.90;;;;;;5138977;27;20205;-87
2023/08/11 06:18:59;;;;;;;2.15;0.82;;;19.70;99.90;;;;;;5138961;27;20230;-88
2023/08/11 06:21:31;;;;;;;4.05;0.80;;;19.80;99.90;;;;;;5137233;27;20560;-87
2023/08/11 06:24:03;;;;;;;3.13;0.90;;;19.80;99.90;;;;;;5137404;27;20749;-87
2023/08/11 06:26:43;;;;;;;1.63;0.60;;;19.80;99.90;;;;;;5146152;27;20214;-84
2023/08/11 06:29:19;;;;;;;2.47;0.77;;;19.90;99.90;;;;;;5155977;27;20278;-86
2023/08/11 06:31:51;;;;;;;4.53;1.00;;;20.00;99.90;;;;;;5153426;27;20265;-88
2023/08/11 06:34:22;;;;;;;3.65;0.77;;;19.90;99.90;;;;;;5140639;27;20200;-88
2023/08/11 06:36:53;;;;;;;1.88;0.77;;;19.90;99.90;;;;;;5157921;27;20567;-89
2023/08/11 06:39:25;;;;;;;2.47;0.82;;;20.00;99.90;;;;;;5144362;27;20194;-88
2023/08/11 06:41:55;;;;;;;2.92;0.70;;;19.90;99.90;;;;;;5139892;27;20193;-84
2023/08/11 06:44:30;;;;;;;3.28;0.85;;;19.80;99.90;;;;;;5155286;27;20229;-84
2023/08/11 06:47:04;;;;;;;2.25;0.80;;;19.60;99.90;;;;;;5160157;27;20271;-84
2023/08/11 06:49:35;;;;;;;2.67;0.68;;;19.40;99.90;;;;;;5148506;27;20242;-84
2023/08/11 06:52:05;;;;;;;3.13;0.73;;;19.30;99.90;;;;;;5135507;27;20198;-86
2023/08/11 06:54:36;;;;;;;2.22;0.68;;;19.20;99.90;;;;;;5142995;27;20209;-84
2023/08/11 06:57:07;;;;;;;5.43;0.90;;;19.20;99.90;;;;;;5159372;27;20189;-86
2023/08/11 06:59:40;;;;;;;1.85;0.70;;;19.00;99.90;;;;;;5156821;27;20265;-84
2023/08/11 07:02:11;;;;;;;2.83;0.80;;;18.90;99.90;;;;;;5173624;27;20204;-84
2023/08/11 07:04:42;;;;;;;1.88;0.73;;;18.80;99.90;;;;;;5148779;27;20213;-84
2023/08/11 07:07:13;;;;;;;3.20;0.90;;;18.70;99.90;;;;;;5173997;27;20272;-85
2023/08/11 07:09:44;;;;;;;2.35;0.80;;;18.60;99.90;;;;;;5174612;27;20574;-84
2023/08/11 07:12:14;;;;;;;2.75;0.85;;;18.50;99.90;;;;;;5174460;27;20263;-83
2023/08/11 07:14:47;;;;;;;2.00;0.80;;;18.30;99.90;;;;;;5165606;27;20193;-82
2023/08/11 07:17:18;;;;;;;4.18;0.98;;;18.30;99.90;;;;;;5143453;27;20198;-83
2023/08/11 07:19:49;;;;;;;2.03;0.80;;;18.10;99.90;;;;;;5141232;27;20221;-85
2023/08/11 07:22:20;;;;;;;2.28;1.23;;;18.10;99.90;;;;;;5137113;27;20194;-84
2023/08/11 07:24:51;;;;;;;6.90;2.15;;;18.10;99.90;;;;;;5134676;27;20222;-86
2023/08/11 07:27:22;;;;;;;4.50;1.90;;;18.00;99.90;;;;;;5134842;27;20782;-85
2023/08/11 07:29:56;;;;;;;3.97;1.30;;;17.90;99.90;;;;;;5135997;27;20190;-86
2023/08/11 07:32:28;;;;;;;9.57;1.52;;;17.80;99.90;;;;;;5140187;27;20656;-86
2023/08/11 07:34:58;;;;;;;5.13;2.00;;;17.70;99.90;;;;;;5154355;27;20562;-85
2023/08/11 07:37:31;;;;;;;3.58;2.10;;;17.70;99.90;;;;;;5154113;27;20272;-85
2023/08/11 07:40:02;;;;;;;3.97;2.28;;;17.60;99.90;;;;;;5116118;27;20545;-85
2023/08/11 07:42:33;;;;;;;4.93;2.60;;;17.50;99.90;;;;;;5132139;27;20277;-84
2023/08/11 07:45:06;;;;;;;4.35;1.83;;;17.50;99.90;;;;;;5152146;27;20189;-84
2023/08/11 07:47:37;;;;;;;2.05;0.93;;;17.40;99.90;;;;;;5137530;27;20239;-83
2023/08/11 07:50:09;;;;;;;3.00;1.30;;;17.40;99.90;;;;;;5144212;27;20204;-85
2023/08/11 07:52:40;;;;;;;3.67;0.98;;;17.40;99.90;;;;;;5153135;27;20203;-85
2023/08/11 07:55:11;;;;;;;2.85;0.88;;;17.30;99.90;;;;;;5152168;27;20196;-84
2023/08/11 07:57:42;;;;;;;2.83;0.88;;;17.30;99.90;;;;;;5151168;27;20193;-85
2023/08/11 08:00:16;;;;;;;2.50;0.90;;;17.20;99.90;;;;;;5132228;27;20232;-83
2023/08/11 08:02:47;;;;;;;2.05;0.88;;;17.10;99.90;;;;;;5138441;27;20189;-83
2023/08/11 08:05:19;;;;;;;1.13;0.63;;;17.10;99.90;;;;;;5135355;27;20193;-84
2023/08/11 08:07:50;;;;;;;3.63;1.10;;;17.10;99.90;;;;;;5140461;27;20198;-84
2023/08/11 08:10:20;;;;;;;1.73;0.80;;;17.10;99.90;;;;;;5132419;27;20217;-84
2023/08/11 08:12:51;;;;;;;3.03;0.93;;;17.10;99.90;;;;;;5132485;27;20574;-83
2023/08/11 08:15:28;;;;;;;2.55;0.95;;;17.00;99.90;;;;;;5136408;27;20564;-84
2023/08/11 08:17:58;;;;;;;3.10;1.00;;;17.00;99.90;;;;;;5136782;27;20221;-84
2023/08/11 08:20:31;;;;;;;2.63;0.90;;;17.00;99.90;;;;;;5138908;27;20193;-84
2023/08/11 08:23:02;;;;;;;2.70;0.90;;;17.00;99.90;;;;;;5133261;27;20669;-83
2023/08/11 08:25:32;;;;;;;3.03;0.80;;;16.90;99.90;;;;;;5144529;27;20186;-85
2023/08/11 08:28:04;;;;;;;3.45;1.08;;;16.90;99.90;;;;;;5142726;27;20189;-83
2023/08/11 08:30:36;;;;;;;4.35;1.08;;;16.80;99.90;;;;;;5157253;27;20651;-82
2023/08/11 08:33:08;;;;;;;2.97;1.17;;;16.70;99.90;;;;;;5146273;27;20242;-84
2023/08/11 08:35:39;;;;;;;2.22;0.90;;;16.80;99.90;;;;;;5131616;28;20247;-83
2023/08/11 08:38:09;;;;;;;5.15;1.02;;;16.70;99.90;;;;;;5135670;27;20190;-84
2023/08/11 08:40:44;;;;;;;1.70;0.70;;;16.70;99.90;;;;;;5139842;27;20198;-84
2023/08/11 08:43:16;;;;;;;2.00;0.98;;;16.70;99.90;;;;;;5131737;27;20262;-83
2023/08/11 08:45:50;;;;;;;4.00;1.30;;;16.70;99.90;;;;;;5135939;27;20668;-83
2023/08/11 08:48:28;;;;;;;2.90;1.10;;;16.70;99.90;;;;;;5152966;27;20219;-83
2023/08/11 08:50:58;;;;;;;2.17;0.80;;;16.70;99.90;;;;;;5141112;27;20552;-82
2023/08/11 08:53:29;;;;;;;2.15;1.10;;;16.60;99.90;;;;;;5135347;27;20676;-82
2023/08/11 08:56:04;;;;;;;2.85;1.17;;;16.60;99.90;;;;;;5151920;27;20558;-80
2023/08/11 08:58:34;;;;;;;2.67;1.15;;;16.60;99.90;;;;;;5151680;27;20747;-83
2023/08/11 09:01:10;;;;;;;2.75;1.10;;;16.60;99.90;;;;;;5152803;27;20652;-83
2023/08/11 09:03:42;;;;;;;3.33;1.20;;;16.50;99.90;;;;;;5152798;27;20204;-82
2023/08/11 09:06:14;;;;;;;4.97;1.42;;;16.60;99.90;;;;;;5155790;27;20559;-82
2023/08/11 09:08:45;;;;;;;2.42;1.23;;;16.50;99.90;;;;;;5147946;27;20208;-83
2023/08/11 09:11:16;;;;;;;2.90;1.30;;;16.50;99.90;;;;;;5140489;27;20194;-83
2023/08/11 09:13:51;;;;;;;2.17;1.30;;;16.50;99.90;;;;;;5139462;27;20201;-82
2023/08/11 09:16:24;;;;;;;3.03;1.30;;;16.50;99.90;;;;;;5143093;27;20177;-83
2023/08/11 09:18:56;;;;;;;3.83;1.50;;;16.50;99.90;;;;;;5157381;27;20221;-83
2023/08/11 09:21:27;;;;;;;2.03;1.20;;;16.40;99.90;;;;;;5155427;27;20211;-83
2023/08/11 09:23:58;;;;;;;1.88;1.10;;;16.40;99.90;;;;;;5157174;27;20702;-83
2023/08/11 09:26:30;;;;;;;5.25;1.20;;;16.40;99.90;;;;;;5137140;27;20209;-82
2023/08/11 09:29:01;;;;;;;3.65;1.35;;;16.40;99.90;;;;;;5134693;27;20182;-84
2023/08/11 09:31:33;;;;;;;3.72;1.40;;;16.30;99.90;;;;;;5135622;27;20194;-82
2023/08/11 09:34:19;;;;;;;3.75;1.30;;;16.30;99.90;;;;;;5136443;27;20190;-82
2023/08/11 09:36:51;;;;;;;2.10;1.27;;;16.30;99.90;;;;;;5136102;27;20205;-84
2023/08/11 09:39:25;;;;;;;5.30;1.52;;;16.20;99.90;;;;;;5138598;27;20194;-82
2023/08/11 09:41:55;;;;;;;2.38;1.20;;;16.20;99.90;;;;;;5137405;27;20632;-84
2023/08/11 09:44:26;;;;;;;3.65;1.30;;;16.20;99.90;;;;;;5158021;27;20225;-83
2023/08/11 09:46:59;;;;;;;5.00;2.92;;;16.20;99.90;;;;;;5151995;27;20591;-83
2023/08/11 09:49:30;;;;;;;6.85;5.30;;;16.20;99.90;;;;;;5148679;27;20756;-82
2023/08/11 09:52:04;;;;;;;5.53;3.10;;;16.10;99.90;;;;;;5135231;27;20194;-84
2023/08/11 09:54:35;;;;;;;5.20;2.47;;;16.10;99.90;;;;;;5134629;27;20209;-84
2023/08/11 09:57:08;;;;;;;7.75;3.70;;;16.10;99.90;;;;;;5134661;27;20201;-82
2023/08/11 09:59:39;;;;;;;3.72;2.35;;;16.10;99.90;;;;;;5134709;27;20193;-84
2023/08/11 10:02:24;;;;;;;3.15;1.50;;;16.10;99.90;;;;;;5135889;27;20194;-84
2023/08/11 10:05:01;;;;;;;2.55;1.67;;;16.10;99.90;;;;;;5142003;27;20231;-85
2023/08/11 10:07:37;;;;;;;4.57;2.22;;;16.10;99.90;;;;;;5148662;27;20200;-83
2023/08/11 10:10:13;;;;;;;4.78;1.50;;;16.10;99.90;;;;;;5156407;27;20197;-83
2023/08/11 10:12:48;;;;;;;4.28;2.30;;;16.00;99.90;;;;;;5152540;27;20177;-83
2023/08/11 10:15:22;;;;;;;2.70;1.50;;;16.10;99.90;;;;;;5144174;27;20610;-84
2023/08/11 10:17:55;;;;;;;3.85;1.40;;;16.00;99.90;;;;;;5133844;27;20217;-83
2023/08/11 10:20:25;;;;;;;3.83;1.20;;;16.00;99.90;;;;;;5133852;27;20194;-82
2023/08/11 10:22:57;;;;;;;3.45;1.30;;;16.10;99.90;;;;;;5133627;27;20190;-82
2023/08/11 10:25:29;;;;;;;2.97;1.10;;;16.00;99.90;;;;;;5133725;27;20226;-82
2023/08/11 10:28:06;;;;;;;3.35;1.80;;;16.00;99.90;;;;;;5133836;27;20206;-84
2023/08/11 10:30:38;;;;;;;3.42;1.77;;;16.00;99.90;;;;;;5133923;27;20197;-84
2023/08/11 10:33:12;;;;;;;4.68;1.30;;;16.00;99.90;;;;;;5132711;27;20548;-84
2023/08/11 10:35:53;;;;;;;2.20;1.40;;;16.00;99.90;;;;;;5133721;27;20666;-84
2023/08/11 10:38:30;;;;;;;3.22;1.30;;;16.00;99.90;;;;;;5133294;27;20200;-83
2023/08/11 10:41:05;;;;;;;2.55;1.30;;;16.00;99.90;;;;;;5148063;27;20553;-83
2023/08/11 10:43:37;;;;;;;2.70;1.20;;;16.00;99.90;;;;;;5133490;27;20206;-84
2023/08/11 10:46:26;;;;;;;2.20;1.42;;;15.90;99.90;;;;;;5135270;27;20239;-83
2023/08/11 10:49:02;;;;;;;2.10;1.20;;;15.90;99.90;;;;;;5157875;27;20194;-82
2023/08/11 10:51:34;;;;;;;2.78;1.50;;;15.90;99.90;;;;;;5156826;27;20661;-84
2023/08/11 10:54:11;;;;;;;5.43;3.08;;;15.90;99.90;;;;;;5150466;27;20676;-82
2023/08/11 10:56:43;;;;;;;5.38;3.50;;;15.90;99.90;;;;;;5142523;27;20207;-83
2023/08/11 10:59:18;;;;;;;4.82;2.72;;;15.80;99.90;;;;;;5154219;27;20193;-83
2023/08/11 11:01:50;;;;;;;4.85;2.92;;;15.80;99.90;;;;;;5134126;27;20285;-83
2023/08/11 11:04:24;;;;;;;4.82;2.80;;;15.70;99.90;;;;;;5141467;27;20229;-84
2023/08/11 11:06:55;;;;;;;4.65;2.78;;;15.70;99.90;;;;;;5133599;27;20202;-84
2023/08/11 11:09:26;;;;;;;6.32;5.28;;;15.70;99.90;;;;;;5145207;27;20182;-85
2023/08/11 11:11:59;;;;;;;4.95;3.58;;;15.70;99.90;;;;;;5160027;27;20230;-84
2023/08/11 11:14:30;;;;;;;7.30;4.93;;;15.70;99.90;;;;;;5144933;27;20694;-84
2023/08/11 11:17:03;;;;;;;5.15;3.85;;;15.70;99.90;;;;;;5139864;27;20562;-83
2023/08/11 11:19:36;;;;;;;4.97;3.17;;;15.60;99.90;;;;;;5136314;27;20629;-83
2023/08/11 11:22:08;;;;;;;3.97;2.80;;;15.60;99.90;;;;;;5166570;27;20197;-83
2023/08/11 11:24:41;;;;;;;3.10;1.70;;;15.60;99.90;;;;;;5150991;27;20214;-82
2023/08/11 11:27:13;;;;;;;3.33;1.65;;;15.50;99.90;;;;;;5157407;27;20182;-83
2023/08/11 11:29:46;;;;;;;5.10;1.70;;;15.60;99.90;;;;;;5156621;27;20224;-84
2023/08/11 11:32:19;;;;;;;3.60;1.80;;;15.60;99.90;;;;;;5176424;27;20201;-85
2023/08/11 11:34:54;;;;;;;2.20;1.30;;;15.50;99.90;;;;;;5159106;27;20194;-84
2023/08/11 11:37:26;;;;;;;6.68;4.50;;;15.50;99.90;;;;;;5138658;27;20536;-84
2023/08/11 11:39:58;;;;;;;3.90;2.05;;;15.50;99.90;;;;;;5139277;27;20226;-84
2023/08/11 11:42:32;;;;;;;3.53;1.70;;;15.40;99.90;;;;;;5134965;27;20197;-82
2023/08/11 11:45:03;;;;;;;2.78;1.45;;;15.40;99.90;;;;;;5139977;27;20216;-84
2023/08/11 11:47:35;;;;;;;3.03;1.50;;;15.40;99.90;;;;;;5133142;27;20657;-82
2023/08/11 11:50:10;;;;;;;5.60;4.53;;;15.40;99.90;;;;;;5132616;27;20653;-83
2023/08/11 11:52:46;;;;;;;5.25;3.40;;;15.40;99.90;;;;;;5132632;27;20193;-83
2023/08/11 11:55:17;;;;;;;4.13;2.47;;;15.40;99.90;;;;;;5139584;27;20193;-82
2023/08/11 11:57:52;;;;;;;3.60;2.35;;;15.40;99.90;;;;;;5154658;27;20200;-82
2023/08/11 12:00:26;;;;;;;2.35;1.70;;;15.30;99.90;;;;;;5142351;27;20194;-83
2023/08/11 12:02:57;;;;;;;4.10;1.80;;;15.30;99.90;;;;;;5134880;27;20265;-83
2023/08/11 12:05:29;;;;;;;2.67;1.58;;;15.30;99.90;;;;;;5133620;27;20228;-83
2023/08/11 12:08:00;;;;;;;3.60;1.65;;;15.30;99.90;;;;;;5131895;27;20721;-83
2023/08/11 12:10:37;;;;;;;5.80;2.30;;;15.20;99.90;;;;;;5132065;27;20190;-82
2023/08/11 12:13:08;;;;;;;4.18;1.95;;;15.20;99.90;;;;;;5132413;27;20667;-83
2023/08/11 12:15:39;;;;;;;4.40;1.90;;;15.20;99.90;;;;;;5133581;27;20197;-83
2023/08/11 12:18:10;;;;;;;3.83;1.95;;;15.20;99.90;;;;;;5152241;27;20225;-84
2023/08/11 12:20:44;;;;;;;3.38;1.48;;;15.20;99.90;;;;;;5148902;27;20193;-84
2023/08/11 12:23:20;;;;;;;3.60;1.58;;;15.20;99.90;;;;;;5153003;27;20617;-85
2023/08/11 12:25:52;;;;;;;4.72;1.60;;;15.10;99.90;;;;;;5153298;27;20217;-83
2023/08/11 12:28:23;;;;;;;4.35;1.70;;;15.10;99.90;;;;;;5152601;27;20197;-83
2023/08/11 12:30:54;;;;;;;3.38;1.55;;;15.20;99.90;;;;;;5136649;27;20196;-84
2023/08/11 12:33:25;;;;;;;3.70;1.75;;;15.10;99.90;;;;;;5143189;27;20194;-84
2023/08/11 12:35:58;;;;;;;3.17;1.30;;;15.10;99.90;;;;;;5132909;27;20225;-84
2023/08/11 12:38:28;;;;;;;4.40;3.28;;;15.10;99.90;;;;;;5136182;27;20198;-83
2023/08/11 12:40:59;;;;;;;4.22;3.10;;;15.10;99.90;;;;;;5135723;27;20197;-83
2023/08/11 12:43:30;;;;;;;5.53;2.67;;;15.00;99.90;;;;;;5135629;27;20692;-84
2023/08/11 12:46:00;;;;;;;5.22;2.05;;;15.00;99.90;;;;;;5136907;27;20224;-84
2023/08/11 12:48:31;;;;;;;3.45;1.63;;;15.00;99.90;;;;;;5143924;27;20562;-83
2023/08/11 12:51:04;;;;;;;4.30;1.50;;;15.00;99.90;;;;;;5148381;27;20221;-85
2023/08/11 12:53:35;;;;;;;2.88;1.40;;;14.90;99.90;;;;;;5143507;27;20724;-84
2023/08/11 12:56:06;;;;;;;2.13;1.20;;;14.80;99.90;;;;;;5141181;27;20579;-84
2023/08/11 12:58:38;;;;;;;6.53;1.50;;;14.80;99.90;;;;;;5134876;27;20541;-84
2023/08/11 13:01:08;;;;;;;4.45;1.40;;;14.80;99.90;;;;;;5152171;27;20566;-84
2023/08/11 13:03:39;;;;;;;6.97;1.52;;;14.80;99.90;;;;;;5140619;27;20190;-84
2023/08/11 13:06:12;;;;;;;2.80;1.50;;;14.80;99.90;;;;;;5136490;27;20692;-84
2023/08/11 13:08:43;;;;;;;3.17;1.27;;;14.90;99.90;;;;;;5139714;27;20689;-82
2023/08/11 13:11:13;;;;;;;2.95;1.33;;;14.90;99.90;;;;;;5138562;27;20259;-82
2023/08/11 13:13:44;;;;;;;3.17;1.60;;;14.90;99.90;;;;;;5138133;27;20194;-83